createdAt,value
2022-12-01T00:01:03.692Z,35.92
2022-12-01T00:03:31.005Z,33.00
2022-12-01T00:06:01.640Z,33.40
2022-12-01T00:08:28.899Z,35.28
2022-12-01T00:10:56.520Z,34.83
2022-12-01T00:13:23.470Z,35.90
2022-12-01T00:15:50.648Z,33.92
2022-12-01T00:18:17.555Z,34.03
2022-12-01T00:20:45.596Z,34.92
2022-12-01T00:23:13.640Z,35.47
2022-12-01T00:25:40.606Z,32.53
2022-12-01T00:28:07.538Z,35.28
2022-12-01T00:30:34.400Z,37.67
2022-12-01T00:33:01.498Z,37.08
2022-12-01T00:35:28.377Z,38.17
2022-12-01T00:37:55.608Z,30.83
2022-12-01T00:40:22.526Z,35.65
2022-12-01T00:42:49.316Z,35.40
2022-12-01T00:45:16.205Z,35.65
2022-12-01T00:47:43.166Z,35.83
2022-12-01T00:50:10.285Z,35.28
2022-12-01T00:52:37.120Z,34.10
2022-12-01T00:55:04.227Z,32.88
2022-12-01T00:57:31.081Z,32.63
2022-12-01T00:59:57.916Z,29.92
2022-12-01T01:02:24.863Z,31.98
2022-12-01T01:04:51.982Z,32.50
2022-12-01T01:07:20.226Z,34.05
2022-12-01T01:09:47.641Z,31.10
2022-12-01T01:12:14.905Z,33.33
2022-12-01T01:14:41.798Z,31.75
2022-12-01T01:17:09.217Z,34.42
2022-12-01T01:19:36.142Z,36.20
2022-12-01T01:22:04.380Z,36.58
2022-12-01T01:24:31.250Z,32.00
2022-12-01T01:26:58.239Z,33.25
2022-12-01T01:29:25.179Z,31.58
2022-12-01T01:31:52.119Z,32.55
2022-12-01T01:34:18.974Z,36.88
2022-12-01T01:36:45.862Z,34.65
2022-12-01T01:39:12.722Z,31.63
2022-12-01T01:41:39.803Z,33.17
2022-12-01T01:44:43.986Z,31.45
2022-12-01T01:47:11.148Z,31.38
2022-12-01T01:49:37.984Z,35.28
2022-12-01T01:52:05.552Z,34.67
2022-12-01T01:54:37.839Z,32.35
2022-12-01T01:57:05.682Z,31.85
2022-12-01T01:59:37.653Z,29.73
2022-12-01T02:02:08.735Z,33.90
2022-12-01T02:04:36.882Z,34.30
2022-12-01T02:07:04.070Z,31.13
2022-12-01T02:09:30.955Z,33.38
2022-12-01T02:12:11.355Z,30.25
2022-12-01T02:15:08.875Z,30.35
2022-12-01T02:17:58.806Z,29.17
2022-12-01T02:20:40.682Z,30.45
2022-12-01T02:23:31.774Z,31.17
2022-12-01T02:25:58.612Z,28.27
2022-12-01T02:28:34.425Z,28.92
2022-12-01T02:31:22.778Z,29.00
2022-12-01T02:34:08.446Z,31.92
2022-12-01T02:36:37.281Z,34.13
2022-12-01T02:39:24.413Z,29.77
2022-12-01T02:41:53.902Z,32.33
2022-12-01T02:44:24.921Z,34.97
2022-12-01T02:46:55.684Z,32.38
2022-12-01T02:49:34.452Z,33.08
2022-12-01T02:52:01.819Z,31.73
2022-12-01T02:54:29.983Z,34.08
2022-12-01T02:56:56.986Z,34.47
2022-12-01T02:59:25.289Z,32.13
2022-12-01T03:02:04.509Z,31.33
2022-12-01T03:04:58.326Z,33.55
2022-12-01T03:07:34.224Z,31.73
2022-12-01T03:10:15.816Z,32.97
2022-12-01T03:12:58.179Z,33.47
2022-12-01T03:16:01.416Z,27.60
2022-12-01T03:18:40.647Z,29.58
2022-12-01T03:21:33.656Z,29.15
2022-12-01T03:24:15.550Z,30.85
2022-12-01T03:26:46.606Z,31.67
2022-12-01T03:29:37.145Z,28.10
2022-12-01T03:32:11.890Z,29.02
2022-12-01T03:35:06.962Z,30.60
2022-12-01T03:37:56.273Z,27.40
2022-12-01T03:40:27.266Z,31.80
2022-12-01T03:43:16.635Z,27.45
2022-12-01T03:46:03.388Z,27.88
2022-12-01T03:48:30.322Z,28.77
2022-12-01T03:51:19.834Z,26.85
2022-12-01T03:53:58.331Z,32.85
2022-12-01T03:56:29.156Z,27.10
2022-12-01T03:58:57.035Z,28.88
2022-12-01T04:01:24.469Z,29.13
2022-12-01T04:03:51.346Z,29.45
2022-12-01T04:06:18.170Z,30.92
2022-12-01T04:08:45.153Z,30.05
2022-12-01T04:11:32.824Z,26.95
2022-12-01T04:14:00.281Z,32.85
2022-12-01T04:16:30.042Z,30.02
2022-12-01T04:18:57.005Z,26.13
2022-12-01T04:21:27.650Z,28.52
2022-12-01T04:24:02.842Z,26.27
2022-12-01T04:26:32.912Z,27.77
2022-12-01T04:29:04.937Z,30.98
2022-12-01T04:31:31.947Z,26.90
2022-12-01T04:34:07.938Z,27.58
2022-12-01T04:36:35.417Z,25.63
2022-12-01T04:39:06.579Z,24.73
2022-12-01T04:41:33.756Z,28.20
2022-12-01T04:44:00.654Z,29.92
2022-12-01T04:46:27.854Z,27.73
2022-12-01T04:48:54.771Z,27.98
2022-12-01T04:51:22.436Z,24.13
2022-12-01T04:53:50.449Z,24.45
2022-12-01T04:56:17.500Z,25.33
2022-12-01T04:58:44.602Z,25.23
2022-12-01T05:01:12.886Z,27.95
2022-12-01T05:03:40.601Z,27.45
2022-12-01T05:06:19.304Z,25.30
2022-12-01T05:08:46.210Z,24.77
2022-12-01T05:11:13.189Z,25.17
2022-12-01T05:13:41.091Z,20.63
2022-12-01T05:16:12.975Z,21.52
2022-12-01T05:18:42.842Z,24.75
2022-12-01T05:21:10.863Z,24.50
2022-12-01T05:23:37.967Z,23.58
2022-12-01T05:26:06.095Z,26.40
2022-12-01T05:28:32.984Z,23.33
2022-12-01T05:30:59.886Z,24.05
2022-12-01T05:33:28.049Z,22.95
2022-12-01T05:35:55.302Z,24.60
2022-12-01T05:38:22.178Z,23.98
2022-12-01T05:40:55.620Z,28.77
2022-12-01T05:43:28.745Z,23.63
2022-12-01T05:45:56.759Z,19.88
2022-12-01T05:48:23.809Z,23.27
2022-12-01T05:50:50.695Z,25.20
2022-12-01T05:53:17.791Z,24.55
2022-12-01T05:55:45.610Z,23.80
2022-12-01T05:58:12.665Z,24.73
2022-12-01T06:00:46.041Z,23.10
2022-12-01T06:03:14.698Z,20.73
2022-12-01T06:05:42.549Z,19.77
2022-12-01T06:08:09.346Z,19.52
2022-12-01T06:10:36.189Z,19.48
2022-12-01T06:13:03.718Z,18.63
2022-12-01T06:15:31.961Z,18.95
2022-12-01T06:18:05.001Z,21.88
2022-12-01T06:20:32.850Z,26.83
2022-12-01T06:22:59.727Z,22.15
2022-12-01T06:25:26.620Z,20.40
2022-12-01T06:27:59.563Z,21.95
2022-12-01T06:30:29.054Z,21.00
2022-12-01T06:32:55.865Z,22.95
2022-12-01T06:35:22.779Z,22.52
2022-12-01T06:37:49.739Z,21.90
2022-12-01T06:40:16.665Z,20.17
2022-12-01T06:42:43.668Z,19.77
2022-12-01T06:45:11.087Z,20.55
2022-12-01T06:47:38.175Z,19.35
2022-12-01T06:50:08.203Z,20.42
2022-12-01T06:52:36.080Z,17.65
2022-12-01T06:55:04.286Z,22.80
2022-12-01T06:57:31.546Z,17.80
2022-12-01T06:59:58.724Z,21.50
2022-12-01T07:02:27.281Z,19.15
2022-12-01T07:04:54.293Z,19.98
2022-12-01T07:07:21.193Z,19.10
2022-12-01T07:09:48.484Z,18.58
2022-12-01T07:12:15.633Z,17.10
2022-12-01T07:14:43.071Z,21.92
2022-12-01T07:17:10.248Z,19.15
2022-12-01T07:19:37.635Z,22.40
2022-12-01T07:22:04.530Z,19.02
2022-12-01T07:24:31.485Z,21.42
2022-12-01T07:26:58.284Z,20.90
2022-12-01T07:29:25.183Z,22.02
2022-12-01T07:31:52.069Z,24.45
2022-12-01T07:34:18.911Z,26.13
2022-12-01T07:36:45.783Z,21.60
2022-12-01T07:39:12.758Z,24.98
2022-12-01T07:41:39.671Z,22.05
2022-12-01T07:44:06.719Z,18.85
2022-12-01T07:46:33.634Z,20.58
2022-12-01T07:49:00.594Z,20.15
2022-12-01T07:51:27.594Z,21.58
2022-12-01T07:53:54.534Z,19.25
2022-12-01T07:56:21.497Z,17.27
2022-12-01T07:58:48.457Z,19.98
2022-12-01T08:01:17.431Z,17.15
2022-12-01T08:03:44.542Z,16.85
2022-12-01T08:06:12.589Z,15.68
2022-12-01T08:08:40.796Z,16.50
2022-12-01T08:11:14.141Z,17.42
2022-12-01T08:13:44.431Z,16.27
2022-12-01T08:16:12.931Z,16.75
2022-12-01T08:18:40.563Z,20.80
2022-12-01T08:21:09.742Z,17.30
2022-12-01T08:23:38.121Z,18.77
2022-12-01T08:26:15.918Z,20.88
2022-12-01T08:28:42.878Z,20.42
2022-12-01T08:31:19.043Z,17.60
2022-12-01T08:33:46.893Z,20.95
2022-12-01T08:36:13.915Z,15.38
2022-12-01T08:38:43.604Z,13.07
2022-12-01T08:41:10.783Z,14.63
2022-12-01T08:46:36.647Z,18.77
2022-12-01T08:49:04.719Z,17.30
2022-12-01T08:51:31.624Z,14.60
2022-12-01T08:53:59.014Z,14.25
2022-12-01T08:56:28.957Z,16.08
2022-12-01T08:58:56.005Z,12.70
2022-12-01T09:01:23.069Z,13.77
2022-12-01T09:04:05.273Z,12.98
2022-12-01T09:06:33.966Z,15.13
2022-12-01T09:09:00.970Z,14.15
2022-12-01T09:11:27.853Z,16.02
2022-12-01T09:13:55.262Z,14.27
2022-12-01T09:16:22.364Z,13.73
2022-12-01T09:18:49.504Z,17.25
2022-12-01T09:21:18.538Z,15.05
2022-12-01T09:23:45.468Z,14.27
2022-12-01T09:26:13.961Z,15.70
2022-12-01T09:28:41.058Z,14.77
2022-12-01T09:31:09.483Z,13.65
2022-12-01T09:33:36.695Z,15.32
2022-12-01T09:36:04.417Z,15.20
2022-12-01T09:38:32.386Z,19.63
2022-12-01T09:41:17.496Z,16.88
2022-12-01T09:43:47.418Z,18.92
2022-12-01T09:46:17.193Z,16.13
2022-12-01T09:48:45.655Z,19.50
2022-12-01T09:51:20.252Z,18.25
2022-12-01T09:53:55.256Z,19.25
2022-12-01T09:56:37.665Z,14.80
2022-12-01T09:59:08.137Z,16.52
2022-12-01T10:01:37.706Z,15.77
2022-12-01T10:04:17.548Z,16.27
2022-12-01T10:07:05.384Z,15.20
2022-12-01T10:09:36.640Z,16.73
2022-12-01T10:12:27.934Z,14.70
2022-12-01T10:15:13.323Z,16.08
2022-12-01T10:18:02.041Z,16.20
2022-12-01T10:20:35.887Z,17.30
2022-12-01T10:23:13.507Z,15.07
2022-12-01T10:26:00.232Z,13.25
2022-12-01T10:28:49.289Z,13.77
2022-12-01T10:31:21.130Z,14.90
2022-12-01T10:34:00.697Z,14.80
2022-12-01T10:36:32.844Z,14.52
2022-12-01T10:39:18.185Z,16.80
2022-12-01T10:42:44.244Z,13.35
2022-12-01T10:48:30.884Z,13.90
2022-12-01T10:51:23.369Z,12.18
2022-12-01T10:57:17.426Z,16.38
2022-12-01T11:03:25.427Z,14.77
2022-12-01T11:06:35.597Z,13.18
2022-12-01T11:09:36.198Z,14.52
2022-12-01T11:12:19.417Z,13.07
2022-12-01T11:15:19.747Z,16.05
2022-12-01T11:17:54.154Z,19.85
2022-12-01T11:20:42.856Z,18.45
2022-12-01T11:23:29.024Z,14.82
2022-12-01T11:26:21.098Z,15.38
2022-12-01T11:29:12.938Z,12.23
2022-12-01T11:31:59.532Z,14.88
2022-12-01T11:34:44.912Z,12.60
2022-12-01T11:37:34.991Z,13.00
2022-12-01T11:40:32.389Z,12.65
2022-12-01T11:43:10.751Z,14.52
2022-12-01T11:45:50.370Z,14.40
2022-12-01T11:48:50.768Z,15.68
2022-12-01T11:51:23.895Z,12.90
2022-12-01T11:54:17.817Z,11.27
2022-12-01T12:00:02.402Z,19.75
2022-12-01T12:02:41.398Z,19.15
2022-12-01T12:05:19.057Z,18.10
2022-12-01T12:08:54.398Z,19.13
2022-12-01T12:11:49.214Z,20.00
2022-12-01T12:14:31.566Z,17.83
2022-12-01T12:17:23.082Z,19.05
2022-12-01T12:20:28.110Z,21.00
2022-12-01T12:23:08.396Z,22.17
2022-12-01T12:25:48.953Z,18.80
2022-12-01T12:28:47.699Z,22.00
2022-12-01T12:31:56.096Z,20.45
2022-12-01T12:34:33.039Z,19.13
2022-12-01T12:37:24.187Z,21.27
2022-12-01T12:40:22.104Z,21.55
2022-12-01T12:43:10.858Z,18.65
2022-12-01T12:45:37.815Z,19.23
2022-12-01T12:48:16.584Z,17.98
2022-12-01T12:50:46.457Z,16.40
2022-12-01T12:53:19.866Z,16.73
2022-12-01T12:58:16.651Z,17.58
2022-12-01T13:00:58.074Z,15.80
2022-12-01T13:03:49.288Z,19.60
2022-12-01T13:06:26.519Z,23.40
2022-12-01T13:08:55.076Z,18.90
2022-12-01T13:11:35.242Z,20.17
2022-12-01T13:14:13.622Z,18.17
2022-12-01T13:16:43.261Z,19.50
2022-12-01T13:19:16.187Z,18.52
2022-12-01T13:21:44.458Z,17.45
2022-12-01T13:24:22.755Z,21.13
2022-12-01T13:26:53.174Z,19.20
2022-12-01T13:29:22.344Z,20.60
2022-12-01T13:31:50.893Z,21.23
2022-12-01T13:34:38.185Z,23.40
2022-12-01T13:37:05.451Z,23.02
2022-12-01T13:39:36.203Z,24.17
2022-12-01T13:42:24.093Z,25.73
2022-12-01T13:44:53.967Z,25.42
2022-12-01T13:47:21.929Z,26.63
2022-12-01T13:49:52.856Z,25.73
2022-12-01T13:52:22.989Z,26.00
2022-12-01T13:55:10.988Z,21.50
2022-12-01T13:57:47.572Z,25.02
2022-12-01T14:00:44.243Z,21.35
2022-12-01T14:03:17.342Z,23.92
2022-12-01T14:05:53.439Z,26.70
2022-12-01T14:08:27.383Z,25.90
2022-12-01T14:11:27.919Z,24.52
2022-12-01T14:14:01.907Z,26.20
2022-12-01T14:16:52.481Z,30.30
2022-12-01T14:19:53.947Z,31.40
2022-12-01T14:22:38.002Z,29.55
2022-12-01T14:25:23.318Z,26.75
2022-12-01T14:27:57.258Z,30.25
2022-12-01T14:31:01.014Z,31.08
2022-12-01T14:33:49.258Z,26.67
2022-12-01T14:36:36.703Z,30.13
2022-12-01T14:39:14.143Z,30.50
2022-12-01T14:41:49.470Z,27.40
2022-12-01T14:44:25.441Z,33.33
2022-12-01T14:47:04.879Z,29.42
2022-12-01T14:49:55.023Z,33.58
2022-12-01T14:52:32.404Z,34.08
2022-12-01T14:55:00.524Z,31.00
2022-12-01T14:57:41.483Z,37.72
2022-12-01T15:00:13.546Z,35.10
2022-12-01T15:03:02.097Z,32.72
2022-12-01T15:05:30.451Z,31.13
2022-12-01T15:08:25.647Z,30.25
2022-12-01T15:10:54.571Z,31.80
2022-12-01T15:13:22.436Z,31.42
2022-12-01T15:15:57.515Z,34.85
2022-12-01T15:18:28.855Z,35.20
2022-12-01T15:21:06.087Z,35.78
2022-12-01T15:23:33.007Z,35.28
2022-12-01T15:25:59.895Z,34.03
2022-12-01T15:28:31.968Z,34.05
2022-12-01T15:30:59.220Z,38.63
2022-12-01T15:33:36.744Z,40.97
2022-12-01T15:36:03.949Z,31.90
2022-12-01T15:38:33.477Z,44.72
2022-12-01T15:41:30.831Z,35.60
2022-12-01T15:43:58.991Z,41.42
2022-12-01T15:46:34.338Z,57.25
2022-12-01T15:49:08.589Z,48.78
2022-12-01T15:51:35.561Z,35.53
2022-12-01T15:54:03.865Z,44.33
2022-12-01T15:56:38.155Z,42.80
2022-12-01T15:59:14.292Z,40.97
2022-12-01T16:01:42.983Z,41.72
2022-12-01T16:04:26.776Z,40.17
2022-12-01T16:06:53.656Z,40.75
2022-12-01T16:09:29.088Z,39.83
2022-12-01T16:12:17.805Z,42.08
2022-12-01T16:15:12.413Z,45.50
2022-12-01T16:17:42.149Z,45.35
2022-12-01T16:20:18.330Z,45.22
2022-12-01T16:22:46.507Z,45.67
2022-12-01T16:25:38.124Z,48.97
2022-12-01T16:28:06.646Z,47.63
2022-12-01T16:30:38.726Z,46.92
2022-12-01T16:33:13.348Z,49.67
2022-12-01T16:35:41.734Z,49.08
2022-12-01T16:38:22.815Z,44.63
2022-12-01T16:40:53.359Z,41.00
2022-12-01T16:43:25.021Z,50.33
2022-12-01T16:46:00.412Z,48.33
2022-12-01T16:48:27.488Z,47.83
2022-12-01T16:50:54.627Z,50.10
2022-12-01T16:53:21.581Z,49.13
2022-12-01T16:55:56.733Z,47.22
2022-12-01T16:58:23.702Z,55.70
2022-12-01T17:00:53.150Z,51.63
2022-12-01T17:03:21.799Z,51.33
2022-12-01T17:05:48.798Z,48.05
2022-12-01T17:08:15.979Z,42.88
2022-12-01T17:10:43.910Z,46.83
2022-12-01T17:13:10.862Z,45.67
2022-12-01T17:15:42.221Z,35.10
2022-12-01T17:18:10.125Z,29.67
2022-12-01T17:20:37.126Z,25.20
2022-12-01T17:23:05.026Z,24.50
2022-12-01T17:25:32.623Z,23.70
2022-12-01T17:27:59.631Z,26.17
2022-12-01T17:30:27.043Z,25.90
2022-12-01T17:32:53.973Z,25.20
2022-12-01T17:35:20.896Z,24.75
2022-12-01T17:37:47.930Z,26.38
2022-12-01T17:40:14.961Z,28.33
2022-12-01T17:42:46.778Z,23.85
2022-12-01T17:45:17.312Z,21.95
2022-12-01T17:47:44.387Z,26.70
2022-12-01T17:50:14.473Z,24.02
2022-12-01T17:52:43.001Z,27.65
2022-12-01T17:55:10.099Z,29.20
2022-12-01T17:57:39.478Z,31.23
2022-12-01T18:00:09.798Z,28.17
2022-12-01T18:02:36.631Z,30.08
2022-12-01T18:05:03.707Z,33.17
2022-12-01T18:07:31.551Z,33.20
2022-12-01T18:09:58.449Z,43.13
2022-12-01T18:12:25.333Z,37.58
2022-12-01T18:14:54.077Z,33.85
2022-12-01T18:17:21.023Z,33.95
2022-12-01T18:19:48.965Z,34.15
2022-12-01T18:22:15.928Z,32.97
2022-12-01T18:24:42.777Z,34.97
2022-12-01T18:27:09.749Z,31.20
2022-12-01T18:29:36.630Z,34.25
2022-12-01T18:32:03.792Z,34.88
2022-12-01T18:34:30.674Z,31.65
2022-12-01T18:36:57.592Z,32.65
2022-12-01T18:39:24.592Z,35.10
2022-12-01T18:41:51.543Z,34.65
2022-12-01T18:44:20.772Z,33.50
2022-12-01T18:46:47.746Z,35.72
2022-12-01T18:49:14.758Z,33.65
2022-12-01T18:51:41.730Z,38.33
2022-12-01T18:54:10.747Z,39.00
2022-12-01T18:56:37.775Z,39.95
2022-12-01T18:59:06.349Z,40.78
2022-12-01T19:01:36.475Z,38.58
2022-12-01T19:04:06.138Z,38.67
2022-12-01T19:06:35.890Z,36.78
2022-12-01T19:09:13.207Z,36.42
2022-12-01T19:11:45.601Z,35.53
2022-12-01T19:14:15.914Z,35.17
2022-12-01T19:16:47.914Z,37.53
2022-12-01T19:19:16.413Z,36.67
2022-12-01T19:21:45.713Z,38.13
2022-12-01T19:24:12.992Z,37.65
2022-12-01T19:26:41.336Z,35.70
2022-12-01T19:29:08.518Z,37.50
2022-12-01T19:31:36.044Z,35.15
2022-12-01T19:34:06.989Z,37.55
2022-12-01T19:36:34.388Z,38.92
2022-12-01T19:39:06.056Z,36.88
2022-12-01T19:41:38.372Z,33.88
2022-12-01T19:44:05.879Z,37.78
2022-12-01T19:46:32.774Z,37.85
2022-12-01T19:49:00.583Z,38.25
2022-12-01T19:51:32.139Z,38.88
2022-12-01T19:54:00.829Z,33.88
2022-12-01T19:56:28.141Z,39.40
2022-12-01T19:58:56.897Z,37.58
2022-12-01T20:01:27.187Z,37.30
2022-12-01T20:03:55.579Z,37.30
2022-12-01T20:06:24.791Z,36.38
2022-12-01T20:08:51.829Z,37.67
2022-12-01T20:11:20.206Z,41.35
2022-12-01T20:13:47.214Z,36.55
2022-12-01T20:16:16.140Z,35.20
2022-12-01T20:18:43.165Z,34.90
2022-12-01T20:21:19.038Z,40.15
2022-12-01T20:23:58.724Z,35.13
2022-12-01T20:26:33.149Z,40.85
2022-12-01T20:29:01.879Z,36.33
2022-12-01T20:31:31.814Z,38.72
2022-12-01T20:33:59.997Z,36.72
2022-12-01T20:36:29.307Z,37.10
2022-12-01T20:38:56.367Z,41.15
2022-12-01T20:41:23.275Z,34.10
2022-12-01T20:43:50.274Z,37.75
2022-12-01T20:46:17.740Z,36.90
2022-12-01T20:48:44.857Z,36.80
2022-12-01T20:51:12.796Z,35.75
2022-12-01T20:53:40.061Z,36.72
2022-12-01T20:56:08.774Z,35.40
2022-12-01T20:58:37.759Z,37.28
2022-12-01T21:01:16.437Z,36.58
2022-12-01T21:03:44.097Z,36.58
2022-12-01T21:06:11.917Z,35.10
2022-12-01T21:08:39.992Z,34.47
2022-12-01T21:11:51.016Z,35.28
2022-12-01T21:14:29.820Z,33.67
2022-12-01T21:17:00.863Z,35.35
2022-12-01T21:19:34.387Z,35.30
2022-12-01T21:22:01.285Z,38.15
2022-12-01T21:24:34.848Z,36.15
2022-12-01T21:27:13.117Z,31.85
2022-12-01T21:29:44.705Z,29.02
2022-12-01T21:32:29.299Z,37.63
2022-12-01T21:34:57.459Z,31.98
2022-12-01T21:37:25.081Z,32.47
2022-12-01T21:39:53.102Z,32.05
2022-12-01T21:42:21.711Z,35.25
2022-12-01T21:44:48.914Z,33.15
2022-12-01T21:47:21.531Z,31.50
2022-12-01T21:49:51.449Z,33.92
2022-12-01T21:52:30.021Z,36.10
2022-12-01T21:55:01.915Z,30.08
2022-12-01T21:57:51.543Z,35.97
2022-12-01T22:00:34.830Z,35.83
2022-12-01T22:03:20.828Z,34.95
2022-12-01T22:06:21.353Z,35.67
2022-12-01T22:08:40.914Z,32.80
2022-12-01T22:11:26.325Z,29.63
2022-12-01T22:14:08.355Z,34.83
2022-12-01T22:16:59.597Z,32.33
2022-12-01T22:19:39.582Z,32.00
2022-12-01T22:22:09.540Z,33.28
2022-12-01T22:24:41.771Z,32.72
2022-12-01T22:27:19.399Z,32.33
2022-12-01T22:29:47.390Z,31.13
2022-12-01T22:32:17.423Z,30.52
2022-12-01T22:34:52.984Z,31.80
2022-12-01T22:37:25.320Z,35.03
2022-12-01T22:39:56.048Z,37.00
2022-12-01T22:42:34.675Z,36.15
2022-12-01T22:45:20.645Z,33.55
2022-12-01T22:47:50.210Z,33.58
2022-12-01T22:50:28.830Z,34.75
2022-12-01T22:53:01.762Z,31.90
2022-12-01T22:55:29.953Z,33.20
2022-12-01T22:57:56.834Z,37.22
2022-12-01T23:00:24.494Z,35.38
2022-12-01T23:02:52.653Z,36.00
2022-12-01T23:05:27.805Z,32.35
2022-12-01T23:07:59.460Z,35.58
2022-12-01T23:10:31.461Z,37.90
2022-12-01T23:13:00.621Z,38.03
2022-12-01T23:15:32.234Z,35.00
2022-12-01T23:18:22.442Z,34.72
2022-12-01T23:20:59.202Z,33.38
2022-12-01T23:23:30.913Z,34.25
2022-12-01T23:25:57.908Z,33.33
2022-12-01T23:28:25.044Z,40.42
2022-12-01T23:30:54.634Z,34.40
2022-12-01T23:33:25.349Z,36.63
2022-12-01T23:36:06.966Z,36.47
2022-12-01T23:38:39.092Z,39.30
2022-12-01T23:41:08.543Z,34.63
2022-12-01T23:43:39.124Z,34.65
2022-12-01T23:46:09.886Z,34.33
2022-12-01T23:48:39.859Z,30.58
2022-12-01T23:51:14.643Z,34.97
2022-12-01T23:53:41.592Z,32.08
2022-12-01T23:56:12.323Z,32.67
2022-12-01T23:58:39.274Z,37.88
